Time;durP1;ratioP1;P1;durP2;ratioP2;P2;SDS_P1;SDS_P2;PMS_P1;PMS_P2;Temp;Humidity;BMP_temperature;BMP_pressure;BME280_temperature;BME280_humidity;BME280_pressure;Samples;Min_cycle;Max_cycle;Signal;HPM_P1;HPM_P2
2023/09/10 00:00:44;;;;;;;13.27;8.85;;;19.50;99.90;;;19.43;68.43;100999.59;5092573;28;20517;-73
2023/09/10 00:03:17;;;;;;;20.15;9.40;;;19.30;96.80;;;19.41;67.72;101007.97;5092643;28;20511;-72
2023/09/10 00:05:51;;;;;;;17.00;9.43;;;19.30;96.70;;;19.14;69.50;101004.41;5092952;28;20429;-73
2023/09/10 00:08:24;;;;;;;13.35;9.10;;;19.10;97.30;;;19.21;69.22;101004.44;5092254;28;20985;-73
2023/09/10 00:10:59;;;;;;;10.65;9.05;;;19.10;97.80;;;19.13;68.94;101001.91;5092514;28;20417;-73
2023/09/10 00:13:33;;;;;;;10.50;8.50;;;19.00;97.50;;;19.20;68.70;101008.19;5092372;28;20435;-73
2023/09/10 00:16:06;;;;;;;10.05;9.05;;;19.10;97.70;;;19.25;68.78;101005.66;5093146;28;20447;-73
2023/09/10 00:18:40;;;;;;;9.70;8.30;;;19.20;97.50;;;19.09;69.46;101012.34;5093225;28;20565;-73
2023/09/10 00:21:14;;;;;;;10.45;9.25;;;19.00;97.90;;;19.02;70.14;101010.66;5092578;28;20421;-73
2023/09/10 00:23:47;;;;;;;10.18;9.00;;;18.90;98.30;;;18.92;70.18;101011.09;5095385;28;20790;-73
2023/09/10 00:26:20;;;;;;;9.63;8.70;;;18.90;98.20;;;19.13;69.96;101012.78;5097467;28;20435;-73
2023/09/10 00:28:54;;;;;;;9.68;8.82;;;19.10;98.40;;;19.10;69.94;101014.03;5096337;28;20912;-73
2023/09/10 00:31:27;;;;;;;9.70;8.80;;;19.10;97.80;;;19.25;69.09;101011.06;5096529;28;20786;-73
2023/09/10 00:34:00;;;;;;;10.20;9.20;;;19.30;97.80;;;19.20;69.81;101009.00;5095826;28;20482;-73
2023/09/10 00:36:35;;;;;;;9.75;8.75;;;19.20;98.00;;;19.14;69.49;101004.41;5096746;28;20439;-73
2023/09/10 00:39:08;;;;;;;10.07;8.77;;;19.10;97.90;;;18.93;70.66;101001.94;5095896;28;20905;-73
2023/09/10 00:41:42;;;;;;;9.50;8.60;;;18.80;98.80;;;19.00;70.02;100999.22;5096487;28;20468;-73
2023/09/10 00:44:15;;;;;;;10.20;9.20;;;19.10;99.90;;;18.84;70.98;101003.16;5096051;28;20495;-73
2023/09/10 00:46:48;;;;;;;10.37;9.33;;;18.80;98.80;;;18.55;72.48;100998.97;5096265;28;20420;-73
2023/09/10 00:49:22;;;;;;;10.13;9.13;;;18.60;99.20;;;18.44;71.99;101002.22;5096148;28;20507;-73
2023/09/10 00:51:57;;;;;;;9.77;8.88;;;18.50;99.20;;;18.50;71.90;101001.44;5096046;28;20561;-73
2023/09/10 00:54:35;;;;;;;10.40;9.27;;;18.50;99.70;;;18.67;71.63;101002.72;5096517;28;20420;-73
2023/09/10 00:57:11;;;;;;;10.13;8.98;;;18.60;99.60;;;18.96;70.49;101011.50;5095547;28;20554;-73
2023/09/10 00:59:46;;;;;;;9.57;8.70;;;19.00;98.80;;;18.85;70.39;101014.84;5095966;28;20448;-73
2023/09/10 01:02:20;;;;;;;10.30;9.27;;;18.90;98.40;;;18.70;71.38;101013.16;5095802;28;20424;-73
2023/09/10 01:04:55;;;;;;;8.53;7.73;;;18.70;99.30;;;18.65;71.54;101004.81;5096635;28;20188;-73
2023/09/10 01:07:29;;;;;;;9.02;8.13;;;18.70;99.10;;;18.59;72.02;101016.50;5095689;28;20505;-73
2023/09/10 01:10:03;;;;;;;9.95;8.98;;;18.60;99.70;;;18.43;72.17;101019.53;5095635;28;20425;-73
2023/09/10 01:12:50;;;;;;;9.55;8.55;;;18.40;99.80;;;18.42;72.07;101015.16;5095780;28;21009;-73
2023/09/10 01:15:32;;;;;;;8.63;7.93;;;18.40;99.90;;;18.45;71.89;101014.75;5096252;28;20437;-73
2023/09/10 01:18:18;;;;;;;10.15;8.48;;;18.50;99.70;;;18.55;71.37;101014.38;5095270;28;20992;-73
2023/09/10 01:21:25;;;;;;;9.90;8.93;;;18.70;99.90;;;18.50;71.45;101014.13;5095384;28;20421;-73
2023/09/10 01:24:20;;;;;;;10.55;8.95;;;18.60;99.80;;;18.29;72.93;101015.09;5094837;28;20854;-73
2023/09/10 01:27:00;;;;;;;9.77;8.83;;;18.30;99.90;;;18.35;71.51;101006.19;5096546;28;20211;-73
2023/09/10 01:29:34;;;;;;;10.13;9.13;;;18.40;99.70;;;18.48;72.01;101006.22;5095260;28;20499;-73
2023/09/10 01:32:17;;;;;;;10.13;9.23;;;18.50;99.90;;;18.33;71.84;101010.97;5095317;28;20425;-73
2023/09/10 01:35:04;;;;;;;9.52;8.55;;;18.30;99.80;;;18.22;72.85;101011.53;5094649;28;20503;-73
2023/09/10 01:37:46;;;;;;;10.32;9.40;;;18.20;99.90;;;18.15;72.93;101008.00;5095203;28;20431;-74
2023/09/10 01:40:29;;;;;;;9.77;8.87;;;18.10;99.90;;;18.17;72.62;101008.63;5095109;28;20424;-73
2023/09/10 01:43:02;;;;;;;10.13;9.15;;;18.20;99.90;;;18.00;73.26;101007.31;5095081;28;20508;-73
2023/09/10 01:45:38;;;;;;;9.85;8.95;;;18.10;99.90;;;18.15;73.53;101011.53;5095615;28;20867;-73
2023/09/10 01:48:12;;;;;;;10.60;9.57;;;18.10;99.90;;;18.08;73.01;101012.56;5094985;28;20423;-73
2023/09/10 01:50:45;;;;;;;10.27;9.35;;;18.10;99.90;;;18.03;72.87;101010.44;5094568;28;20916;-73
2023/09/10 01:53:19;;;;;;;9.65;8.75;;;18.10;99.90;;;18.09;72.66;101008.78;5095225;28;20427;-73
2023/09/10 01:55:52;;;;;;;10.00;9.10;;;18.10;99.90;;;17.95;73.45;101009.75;5094802;28;20420;-73
2023/09/10 01:58:25;;;;;;;10.75;9.75;;;17.90;99.90;;;17.95;73.60;101009.75;5095164;28;20460;-73
2023/09/10 02:00:58;;;;;;;10.10;9.20;;;18.00;99.90;;;17.97;73.34;101002.28;5094900;28;20499;-73
2023/09/10 02:03:32;;;;;;;10.57;9.48;;;18.00;99.90;;;17.81;73.76;101010.78;5094815;28;20425;-73
2023/09/10 02:06:07;;;;;;;10.05;9.05;;;17.90;99.90;;;17.91;73.58;101006.63;5095374;28;20421;-73
2023/09/10 02:08:40;;;;;;;10.57;9.57;;;17.90;99.90;;;17.91;73.40;101014.75;5094358;28;20965;-73
2023/09/10 02:11:14;;;;;;;10.32;9.23;;;17.90;99.90;;;17.89;73.14;101018.72;5095681;28;20346;-73
2023/09/10 02:13:47;;;;;;;10.95;9.85;;;18.00;99.90;;;17.73;74.10;101020.72;5094334;28;20417;-73
2023/09/10 02:16:20;;;;;;;11.65;10.45;;;17.80;99.90;;;17.60;74.90;101026.03;5094374;28;20417;-73
2023/09/10 02:18:54;;;;;;;10.93;9.83;;;17.60;99.90;;;17.77;73.71;101023.88;5094999;28;20476;-73
2023/09/10 02:21:27;;;;;;;11.20;10.20;;;17.80;99.90;;;17.75;73.86;101028.63;5094671;28;20507;-73
2023/09/10 02:24:01;;;;;;;11.20;10.10;;;17.90;99.90;;;17.68;74.15;101023.19;5094137;28;20499;-73
2023/09/10 02:26:34;;;;;;;10.88;9.77;;;17.90;99.90;;;17.65;74.03;101023.59;5094960;28;20428;-73
2023/09/10 02:29:07;;;;;;;13.07;9.82;;;17.70;99.90;;;17.71;73.88;101027.34;5094180;28;20447;-73
2023/09/10 02:31:40;;;;;;;10.55;9.52;;;17.90;99.90;;;17.83;73.33;101030.34;5094672;28;20420;-73
2023/09/10 02:34:14;;;;;;;10.40;9.43;;;17.90;99.90;;;17.83;74.11;101022.22;5093887;28;20424;-73
2023/09/10 02:36:48;;;;;;;11.40;10.30;;;18.10;99.90;;;17.67;74.42;101029.63;5093607;28;20938;-73
2023/09/10 02:39:21;;;;;;;10.10;9.10;;;17.70;99.90;;;17.69;74.04;101030.28;5094631;28;21033;-73
2023/09/10 02:41:54;;;;;;;10.65;9.65;;;17.70;99.90;;;17.66;75.11;101024.44;5094125;28;20436;-73
2023/09/10 02:44:27;;;;;;;11.13;9.93;;;17.60;99.90;;;17.87;73.05;101037.03;5093924;28;20416;-73
2023/09/10 02:47:00;;;;;;;10.93;9.93;;;18.00;99.90;;;17.64;73.86;101037.31;5093496;28;20449;-73
2023/09/10 02:49:36;;;;;;;10.15;9.25;;;17.90;99.90;;;17.66;73.74;101035.25;5093437;28;20918;-73
2023/09/10 02:52:10;;;;;;;11.05;10.02;;;17.80;99.90;;;17.71;72.95;101039.03;5093502;28;20917;-73
2023/09/10 02:54:43;;;;;;;10.57;9.60;;;17.90;99.90;;;17.59;75.07;101040.63;5093733;28;20511;-73
2023/09/10 02:57:17;;;;;;;10.63;9.63;;;17.70;99.90;;;17.49;74.58;101045.53;5094196;28;20512;-73
2023/09/10 02:59:50;;;;;;;10.53;9.43;;;17.70;99.90;;;17.52;74.98;101045.13;5093565;28;20483;-73
2023/09/10 03:02:23;;;;;;;10.25;9.18;;;17.60;99.90;;;17.58;74.45;101049.78;5094172;28;20495;-73
2023/09/10 03:04:56;;;;;;;10.33;9.20;;;17.60;99.90;;;17.64;74.19;101053.56;5094626;28;20189;-73
2023/09/10 03:07:30;;;;;;;9.68;8.88;;;17.70;99.90;;;17.68;73.97;101055.69;5093902;28;20420;-73
2023/09/10 03:10:03;;;;;;;10.10;9.13;;;17.80;99.90;;;17.56;74.52;101048.31;5094242;28;20485;-73
2023/09/10 03:12:36;;;;;;;11.23;9.98;;;17.60;99.90;;;17.35;75.15;101053.75;5094198;28;20511;-72
2023/09/10 03:15:11;;;;;;;9.98;9.05;;;17.40;99.90;;;17.45;75.72;101049.66;5094556;28;20431;-72
2023/09/10 03:17:44;;;;;;;10.05;9.18;;;17.50;99.90;;;17.44;75.14;101047.97;5093474;28;20500;-73
2023/09/10 03:20:18;;;;;;;10.80;9.70;;;17.50;99.90;;;17.27;75.86;101041.19;5093159;28;20452;-73
2023/09/10 03:22:57;;;;;;;10.25;9.25;;;17.40;99.90;;;17.24;75.74;101045.13;5092874;28;20931;-73
2023/09/10 03:25:35;;;;;;;10.52;9.57;;;17.30;99.90;;;17.27;76.45;101045.78;5092845;28;20893;-73
2023/09/10 03:28:10;;;;;;;10.57;9.57;;;17.40;99.90;;;17.26;76.31;101039.50;5093578;28;20424;-73
2023/09/10 03:30:43;;;;;;;9.98;9.07;;;17.40;99.90;;;17.26;76.26;101042.22;5093072;28;20500;-73
2023/09/10 03:33:16;;;;;;;10.30;9.30;;;17.40;99.90;;;17.28;76.39;101042.88;5092875;28;20460;-73
2023/09/10 03:35:50;;;;;;;9.93;9.03;;;17.50;99.90;;;17.33;76.68;101039.59;5093133;28;20421;-73
2023/09/10 03:38:24;;;;;;;10.45;9.38;;;17.40;99.90;;;17.33;77.01;101035.00;5093278;28;20478;-73
2023/09/10 03:40:57;;;;;;;9.77;8.77;;;17.50;99.90;;;17.34;76.40;101035.84;5093982;28;20213;-73
2023/09/10 03:43:31;;;;;;;10.80;9.20;;;17.50;99.90;;;17.30;77.15;101035.38;5093062;28;20429;-73
2023/09/10 03:46:05;;;;;;;10.15;9.15;;;17.50;99.90;;;17.29;77.43;101033.75;5092814;28;20447;-73
2023/09/10 03:48:38;;;;;;;10.50;9.10;;;17.50;99.90;;;17.29;77.72;101025.63;5092949;28;20499;-73
2023/09/10 03:51:12;;;;;;;9.95;8.95;;;17.50;99.90;;;17.21;77.41;101039.28;5092779;28;20420;-73
2023/09/10 03:53:45;;;;;;;10.23;9.23;;;17.40;99.90;;;17.13;77.41;101034.84;5092833;28;20516;-73
2023/09/10 03:56:18;;;;;;;9.60;8.70;;;17.20;99.90;;;17.15;77.68;101034.66;5092979;28;20499;-73
2023/09/10 03:58:52;;;;;;;10.27;9.18;;;17.30;99.90;;;17.14;78.13;101035.69;5092444;28;20519;-73
2023/09/10 04:01:25;;;;;;;10.45;9.40;;;17.50;99.90;;;17.16;78.07;101034.44;5092588;28;20462;-73
2023/09/10 04:03:59;;;;;;;10.53;8.77;;;17.40;99.90;;;17.24;77.31;101037.03;5093671;28;20315;-73
2023/09/10 04:06:32;;;;;;;10.50;9.50;;;17.40;99.90;;;17.18;78.32;101032.41;5092653;28;20520;-73
2023/09/10 04:09:07;;;;;;;9.75;8.82;;;17.30;99.90;;;17.04;79.18;101030.63;5092417;28;20435;-73
2023/09/10 04:11:40;;;;;;;10.68;9.20;;;17.20;99.90;;;17.05;78.92;101031.47;5092621;28;20504;-73
2023/09/10 04:14:14;;;;;;;9.95;9.00;;;17.20;99.90;;;17.21;77.44;101033.88;5092923;28;20508;-73
2023/09/10 04:16:47;;;;;;;11.35;10.25;;;17.40;99.90;;;16.98;79.19;101035.97;5092075;28;20783;-73
2023/09/10 04:19:22;;;;;;;10.98;9.85;;;17.20;99.90;;;17.06;78.53;101030.41;5092455;28;20421;-73
2023/09/10 04:21:57;;;;;;;11.80;10.65;;;17.30;99.90;;;17.12;78.46;101029.66;5092270;28;20865;-73
2023/09/10 04:24:30;;;;;;;11.55;10.35;;;17.30;99.90;;;17.04;79.59;101043.31;5092787;28;20424;-73
2023/09/10 04:27:03;;;;;;;11.68;10.50;;;17.30;99.90;;;16.98;79.89;101030.56;5092100;28;20793;-73
2023/09/10 04:29:37;;;;;;;11.55;10.45;;;17.10;99.90;;;17.06;78.66;101028.53;5092736;28;20956;-73
2023/09/10 04:32:10;;;;;;;11.48;10.43;;;17.30;99.90;;;17.02;79.17;101037.25;5092126;28;20512;-73
2023/09/10 04:34:43;;;;;;;11.20;10.10;;;17.20;99.90;;;17.02;79.52;101042.66;5092247;28;20468;-73
2023/09/10 04:37:17;;;;;;;12.10;10.80;;;17.20;99.90;;;16.90;78.81;101047.75;5092684;28;20432;-73
2023/09/10 04:39:51;;;;;;;12.00;10.48;;;17.10;99.90;;;16.90;78.67;101052.31;5092863;28;20440;-72
2023/09/10 04:42:25;;;;;;;12.47;11.20;;;17.10;99.90;;;16.90;78.70;101047.75;5092700;28;20523;-72
2023/09/10 04:44:59;;;;;;;11.35;10.25;;;17.20;99.90;;;16.95;79.02;101048.00;5092176;28;20421;-72
2023/09/10 04:47:32;;;;;;;11.43;10.27;;;17.20;99.90;;;17.00;78.37;101044.72;5092336;28;20839;-72
2023/09/10 04:50:06;;;;;;;11.50;10.43;;;17.20;99.90;;;16.93;79.02;101051.94;5092097;28;20504;-73
2023/09/10 04:52:42;;;;;;;11.40;10.30;;;17.20;99.90;;;16.99;77.80;101059.25;5092194;28;20489;-72
2023/09/10 04:55:16;;;;;;;13.77;11.10;;;17.30;99.90;;;16.90;78.61;101060.44;5092192;28;20417;-72
2023/09/10 04:57:50;;;;;;;13.07;11.87;;;17.10;99.90;;;16.86;78.97;101059.97;5092443;28;20421;-72
2023/09/10 05:00:23;;;;;;;15.43;13.70;;;17.10;99.90;;;16.82;81.06;101063.25;5091538;28;20904;-72
2023/09/10 05:02:56;;;;;;;13.70;12.50;;;17.00;99.90;;;16.76;81.04;101069.44;5092306;28;20498;-72
2023/09/10 05:05:30;;;;;;;14.80;13.50;;;16.90;99.90;;;16.72;81.47;101056.31;5091970;28;20507;-72
2023/09/10 05:08:04;;;;;;;16.17;14.63;;;16.90;99.90;;;16.72;81.00;101067.13;5092025;28;20856;-72
2023/09/10 05:10:38;;;;;;;17.00;15.33;;;16.90;99.90;;;16.81;81.83;101075.13;5095748;28;20423;-73
2023/09/10 05:13:11;;;;;;;17.30;15.35;;;17.00;99.90;;;16.86;81.37;101069.97;5095597;28;20428;-73
2023/09/10 05:15:45;;;;;;;19.15;17.25;;;17.10;99.90;;;16.83;81.80;101081.16;5095379;28;20427;-73
2023/09/10 05:18:18;;;;;;;20.10;18.10;;;17.10;99.90;;;16.79;82.66;101080.72;5095724;28;20474;-73
2023/09/10 05:20:53;;;;;;;20.17;18.33;;;17.00;99.90;;;16.83;83.19;101086.56;5095124;28;20847;-73
2023/09/10 05:23:29;;;;;;;24.02;21.70;;;17.00;99.90;;;16.89;84.99;101086.63;5095487;28;20505;-73
2023/09/10 05:26:06;;;;;;;21.93;19.73;;;17.20;99.90;;;16.90;82.90;101082.91;5095395;28;20583;-73
2023/09/10 05:28:40;;;;;;;20.92;18.92;;;17.20;99.90;;;17.01;82.92;101089.69;5095382;28;20485;-73
2023/09/10 05:31:18;;;;;;;23.17;20.80;;;17.30;99.90;;;17.07;84.88;101089.72;5095139;28;20886;-73
2023/09/10 05:33:52;;;;;;;25.10;22.60;;;17.40;99.90;;;17.14;84.98;101095.22;5095160;28;20511;-73
2023/09/10 05:36:25;;;;;;;22.80;20.60;;;17.40;99.90;;;17.17;84.87;101097.53;5095979;28;20437;-73
2023/09/10 05:38:58;;;;;;;27.02;24.52;;;17.40;99.90;;;17.19;84.61;101092.78;5095537;28;20509;-73
2023/09/10 05:41:31;;;;;;;25.10;22.80;;;17.50;99.90;;;17.20;85.31;101089.84;5094783;28;20986;-73
2023/09/10 05:44:05;;;;;;;24.67;22.47;;;17.50;99.90;;;17.22;84.74;101101.34;5094745;28;20925;-73
2023/09/10 05:46:39;;;;;;;26.33;23.70;;;17.50;99.90;;;17.22;84.50;101104.03;5095072;28;20424;-73
2023/09/10 05:49:13;;;;;;;27.67;24.97;;;17.50;99.90;;;17.23;84.78;101105.69;5095213;28;20511;-73
2023/09/10 05:51:46;;;;;;;32.28;29.23;;;17.60;99.90;;;17.25;87.37;101108.22;5094809;28;20453;-73
2023/09/10 05:54:19;;;;;;;30.30;27.40;;;17.50;99.90;;;17.25;86.54;101108.22;5094721;28;20496;-73
2023/09/10 05:56:53;;;;;;;35.05;31.60;;;17.60;99.90;;;17.28;87.93;101113.25;5094447;28;20941;-73
2023/09/10 05:59:26;;;;;;;38.10;34.40;;;17.70;99.90;;;17.28;90.07;101107.81;5094305;28;20906;-73
2023/09/10 06:02:00;;;;;;;38.53;34.67;;;17.60;99.90;;;17.29;91.23;101106.81;5095189;28;20456;-73
2023/09/10 06:04:33;;;;;;;36.25;32.78;;;17.60;99.90;;;17.32;90.01;101103.69;5094269;28;20828;-73
2023/09/10 06:07:08;;;;;;;37.80;34.13;;;17.70;99.90;;;17.36;90.08;101105.00;5094811;28;20987;-73
2023/09/10 06:09:41;;;;;;;32.80;29.37;;;17.70;99.90;;;17.40;89.86;101108.13;5095785;28;20191;-73
2023/09/10 06:12:15;;;;;;;42.88;38.63;;;17.80;99.90;;;17.45;91.57;101108.38;5094414;28;20429;-73
2023/09/10 06:14:48;;;;;;;39.80;36.00;;;17.80;99.90;;;17.41;91.30;101107.94;5094195;28;20985;-73
2023/09/10 06:17:24;;;;;;;42.38;38.38;;;17.80;99.90;;;17.43;91.82;101111.25;5094695;28;20515;-73
2023/09/10 06:19:57;;;;;;;41.83;37.47;;;17.80;99.90;;;17.48;92.36;101114.25;5094910;28;20272;-73
2023/09/10 06:22:32;;;;;;;38.28;34.78;;;18.00;99.90;;;17.52;90.85;101120.94;5094108;28;20432;-73
2023/09/10 06:25:07;;;;;;;39.15;35.47;;;17.90;99.90;;;17.54;90.74;101118.84;5094180;28;20417;-72
2023/09/10 06:27:41;;;;;;;40.10;36.20;;;17.90;99.90;;;17.59;90.64;101119.16;5094484;28;20564;-72
2023/09/10 06:30:16;;;;;;;42.63;38.55;;;18.00;99.90;;;17.62;92.13;101126.88;5094147;28;20502;-73
2023/09/10 06:32:51;;;;;;;43.38;39.28;;;18.10;99.90;;;17.65;92.54;101123.78;5093624;28;20562;-73
2023/09/10 06:35:25;;;;;;;37.38;33.60;;;18.10;99.90;;;17.67;91.11;101124.41;5094626;28;20421;-73
2023/09/10 06:37:58;;;;;;;42.33;38.47;;;18.10;99.90;;;17.72;91.94;101121.97;5093674;28;20420;-74
2023/09/10 06:40:36;;;;;;;41.10;37.00;;;18.20;99.90;;;17.75;92.33;101126.13;5094353;28;20425;-73
2023/09/10 06:43:10;;;;;;;44.93;40.63;;;18.20;99.90;;;17.80;92.44;101122.84;5094100;28;20424;-73
2023/09/10 06:45:44;;;;;;;42.58;38.53;;;18.20;99.90;;;17.84;92.53;101124.13;5093894;28;20431;-73
2023/09/10 06:48:18;;;;;;;44.50;40.25;;;18.30;99.90;;;17.88;92.76;101119.97;5094195;28;20790;-73
2023/09/10 06:50:51;;;;;;;41.42;37.17;;;18.30;99.90;;;17.91;92.93;101117.69;5094388;28;20474;-73
2023/09/10 06:53:25;;;;;;;37.10;33.67;;;18.50;99.90;;;17.95;91.17;101118.13;5093495;28;20431;-74
2023/09/10 06:55:58;;;;;;;40.53;36.30;;;18.40;99.90;;;18.02;92.50;101117.13;5094560;28;20189;-74
2023/09/10 06:58:32;;;;;;;42.37;38.20;;;18.40;99.90;;;18.06;92.94;101123.00;5093503;28;20430;-74
2023/09/10 07:01:10;;;;;;;50.03;45.10;;;18.60;99.90;;;18.12;92.36;101127.59;5093504;28;20515;-73
2023/09/10 07:03:43;;;;;;;48.47;43.80;;;18.60;99.90;;;18.20;92.83;101130.16;5094266;28;20452;-73
2023/09/10 07:06:17;;;;;;;47.55;42.85;;;18.70;99.90;;;18.25;93.09;101133.13;5093838;28;20492;-73
2023/09/10 07:08:50;;;;;;;48.10;43.40;;;18.70;99.90;;;18.31;92.70;101135.03;5094271;28;20486;-66
2023/09/10 07:11:24;;;;;;;49.78;44.97;;;18.80;99.90;;;18.37;92.57;101131.50;5093326;28;20463;-73
2023/09/10 07:13:58;;;;;;;47.78;43.33;;;18.90;99.90;;;18.42;93.26;101144.47;5093222;28;20421;-72
2023/09/10 07:16:31;;;;;;;49.13;44.23;;;19.00;99.90;;;18.47;92.75;101137.38;5094125;28;20428;-74
2023/09/10 07:19:05;;;;;;;51.30;46.42;;;18.90;99.90;;;18.59;92.56;101140.41;5093350;28;20503;-74
2023/09/10 07:21:38;;;;;;;50.33;45.53;;;19.10;99.90;;;18.59;93.01;101141.25;5093679;28;20433;-74
2023/09/10 07:24:12;;;;;;;52.50;47.58;;;19.10;99.90;;;18.74;92.34;101136.47;5093118;28;20428;-72
2023/09/10 07:26:45;;;;;;;51.22;46.42;;;19.20;99.90;;;18.82;91.03;101140.03;5092951;28;20500;-72
2023/09/10 07:29:19;;;;;;;51.25;46.38;;;19.30;99.90;;;18.82;91.67;101140.03;5093425;28;20421;-74
2023/09/10 07:31:52;;;;;;;49.80;45.05;;;19.30;99.90;;;18.90;92.44;101139.88;5092057;28;20898;-73
2023/09/10 07:34:27;;;;;;;43.60;39.23;;;19.40;99.90;;;18.96;91.28;101136.34;5093033;28;20452;-73
2023/09/10 07:37:00;;;;;;;52.08;46.97;;;19.50;99.90;;;19.06;90.71;101136.75;5092914;28;20424;-74
2023/09/10 07:39:33;;;;;;;42.03;38.00;;;19.60;99.90;;;19.10;89.21;101138.88;5093328;28;20503;-74
2023/09/10 07:42:07;;;;;;;44.10;39.70;;;19.70;99.90;;;19.16;89.12;101142.63;5093336;28;20623;-73
2023/09/10 07:44:41;;;;;;;51.47;46.63;;;19.70;99.90;;;19.27;89.69;101147.44;5092315;28;20852;-73
2023/09/10 07:47:16;;;;;;;47.30;42.95;;;19.80;99.90;;;19.42;89.64;101148.09;5092371;28;20922;-74
2023/09/10 07:49:52;;;;;;;45.67;41.38;;;20.00;99.90;;;19.54;88.95;101145.63;5092923;28;20436;-74
2023/09/10 07:52:25;;;;;;;45.13;40.85;;;20.10;99.90;;;19.55;88.61;101142.72;5092258;28;20910;-73
2023/09/10 07:54:59;;;;;;;43.88;39.85;;;20.20;99.90;;;19.64;87.82;101152.31;5092487;28;20517;-73
2023/09/10 07:57:32;;;;;;;43.08;38.97;;;20.30;99.90;;;19.70;87.71;101148.75;5093318;28;20513;-74
2023/09/10 08:00:08;;;;;;;40.95;37.20;;;20.40;99.90;;;19.71;87.61;101153.13;5092620;28;20420;-74
2023/09/10 08:02:41;;;;;;;43.00;38.90;;;20.30;99.90;;;19.84;87.05;101156.88;5092294;28;20471;-73
2023/09/10 08:05:16;;;;;;;39.77;35.90;;;20.40;99.90;;;19.94;87.04;101155.41;5093702;28;20193;-73
2023/09/10 08:07:49;;;;;;;45.40;41.13;;;20.50;99.90;;;20.06;86.71;101153.72;5092364;28;20498;-74
2023/09/10 08:10:23;;;;;;;45.10;40.75;;;19.50;99.90;;;20.28;85.87;101151.59;5092496;28;20443;-74
2023/09/10 08:12:55;;;;;;;42.60;38.58;;;;;;;20.34;85.57;101150.75;5092458;28;20504;-73
2023/09/10 08:15:27;;;;;;;43.17;39.03;;;;;;;20.37;85.17;101147.59;5092788;28;20879;-74
2023/09/10 08:17:59;;;;;;;37.70;34.13;;;;;;;20.44;85.36;101148.41;5092593;28;20421;-74
2023/09/10 08:20:31;;;;;;;33.33;30.30;;;;;;;20.46;84.20;101153.63;5092351;28;20420;-73
2023/09/10 08:23:03;;;;;;;35.58;32.38;;;;;;;20.65;83.43;101158.19;5092302;28;20455;-72
2023/09/10 08:25:35;;;;;;;36.60;33.22;;;;;;;20.65;83.43;101153.53;5093627;28;20425;-74
2023/09/10 08:28:09;;;;;;;32.90;29.92;;;;;;;20.73;82.66;101157.91;5092081;28;20512;-73
2023/09/10 08:30:41;;;;;;;33.40;30.35;;;;;;;20.84;83.65;101161.84;5092200;28;20500;-74
2023/09/10 08:33:13;;;;;;;34.88;31.63;;;;;;;20.97;82.40;101153.59;5091905;28;20435;-73
2023/09/10 08:35:50;;;;;;;32.13;29.23;;;;;;;21.07;81.42;101151.22;5092158;28;20420;-73
2023/09/10 08:38:22;;;;;;;31.48;28.65;;;;;;;21.08;81.57;101155.63;5093152;28;20424;-74
2023/09/10 08:41:09;;;;;;;32.58;29.55;;;;;;;21.10;83.07;101159.00;5092756;28;20894;-74
2023/09/10 08:43:53;;;;;;;27.88;25.30;;;;;;;21.32;80.90;101157.59;5093376;28;20451;-73
2023/09/10 08:46:31;;;;;;;29.40;26.73;;;;;;;21.40;79.57;101153.78;5095653;28;20809;-73
2023/09/10 08:49:04;;;;;;;28.53;25.93;;;;;;;21.42;79.70;101151.66;5096634;28;20782;-74
2023/09/10 08:51:37;;;;;;;24.20;22.00;;;;;;;21.53;78.23;101151.78;5096218;28;20790;-74
2023/09/10 08:54:10;;;;;;;26.77;24.30;;;;;;;21.69;77.58;101148.50;5095974;28;20500;-74
2023/09/10 08:56:43;;;;;;;25.75;23.35;;;;;;;21.78;78.33;101159.13;5095919;28;20428;-72
2023/09/10 08:59:16;;;;;;;26.55;24.02;;;;;;;21.96;75.80;101164.63;5096455;28;20420;-74
2023/09/10 09:01:49;;;;;;;25.88;23.52;;;;;;;21.98;76.31;101167.97;5095554;28;20421;-74
2023/09/10 09:04:22;;;;;;;25.08;22.77;;;;;;;22.03;76.18;101165.41;5096720;28;20427;-74
2023/09/10 09:06:56;;;;;;;22.80;20.58;;;;;;;22.13;75.83;101176.63;5095994;28;20425;-74
2023/09/10 09:09:32;;;;;;;24.58;22.17;;;;;;;22.17;75.51;101172.38;5096032;28;20427;-74
2023/09/10 09:12:06;;;;;;;23.90;21.60;;;;;;;22.26;75.00;101172.94;5095634;28;20496;-73
2023/09/10 09:14:42;;;;;;;21.65;19.67;;;;;;;22.36;74.76;101176.81;5095636;28;20424;-74
2023/09/10 09:17:16;;;;;;;21.67;19.67;;;;;;;22.40;75.71;101178.00;5095993;28;20522;-74
2023/09/10 09:19:50;;;;;;;19.25;17.25;;;;;;;22.74;73.42;101185.59;5095562;28;20538;-74
2023/09/10 09:22:28;;;;;;;20.10;18.20;;;;;;;22.86;71.69;101177.47;5095192;28;20864;-73
2023/09/10 09:25:02;;;;;;;21.83;19.63;;;;;;;23.05;70.58;101178.25;5095167;28;20442;-74
2023/09/10 09:27:35;;;;;;;20.48;18.67;;;;;;;23.04;70.97;101176.59;5095568;28;20428;-74
2023/09/10 09:30:08;;;;;;;18.77;16.90;;;;;;;23.06;71.35;101182.66;5096224;28;20650;-74
2023/09/10 09:32:40;;;;;;;18.07;16.47;;;;;;;23.28;69.99;101172.91;5094920;28;20614;-72
2023/09/10 09:35:14;;;;;;;19.07;17.13;;;;;;;23.41;68.85;101169.16;5096396;28;20251;-74
2023/09/10 09:37:46;;;;;;;18.63;16.83;;;;;;;23.53;67.61;101162.63;5095233;28;20794;-74
2023/09/10 09:40:22;;;;;;;18.10;16.50;;;;;;;23.58;67.74;101170.13;5095480;28;20481;-74
2023/09/10 09:42:57;;;;;;;18.23;16.50;;;;;;;23.61;67.79;101169.66;5095275;28;20442;-73
2023/09/10 09:45:47;;;;;;;16.95;15.25;;;;;;;23.69;68.51;101178.38;5095392;28;20511;-73
2023/09/10 09:48:20;;;;;;;15.00;13.30;;;;;;;23.79;67.12;101168.72;5095851;28;20196;-74
2023/09/10 09:50:52;;;;;;;15.35;13.85;;;;;;;23.95;68.24;101168.84;5094976;28;20424;-74
2023/09/10 09:53:27;;;;;;;15.85;14.25;;;;;;;23.96;66.90;101166.97;5095522;28;20456;-73
2023/09/10 09:56:00;;;;;;;15.07;13.68;;;;;;;24.28;64.43;101164.72;5094262;28;20568;-73
2023/09/10 09:58:33;;;;;;;15.43;13.88;;;;;;;24.38;63.67;101163.03;5095402;28;20429;-73
2023/09/10 10:01:06;;;;;;;12.95;11.75;;;;;;;24.44;63.50;101164.81;5094955;28;20421;-73
2023/09/10 10:03:39;;;;;;;14.73;11.05;;;;;;;24.44;64.47;101159.31;5095572;28;20448;-73
2023/09/10 10:06:12;;;;;;;16.08;14.57;;;;;;;24.55;62.77;101161.22;5094356;28;20947;-73
2023/09/10 10:08:50;;;;;;;14.77;13.32;;;;;;;24.62;63.19;101161.88;5094458;28;20887;-72
2023/09/10 10:11:31;;;;;;;13.82;12.43;;;;;;;24.66;63.02;101162.22;5094592;28;20427;-74
2023/09/10 10:14:04;;;;;;;12.10;11.00;;;;;;;24.77;62.36;101157.78;5094643;28;20885;-73
2023/09/10 10:16:37;;;;;;;13.60;12.30;;;;;;;24.72;62.88;101151.16;5094536;28;20449;-74
2023/09/10 10:19:11;;;;;;;14.33;13.03;;;;;;;24.95;60.64;101157.63;5095041;28;20424;-73
2023/09/10 10:21:45;;;;;;;13.13;11.93;;;;;;;25.03;60.92;101151.78;5094063;28;20948;-73
2023/09/10 10:24:19;;;;;;;13.65;12.35;;;;;;;25.15;60.29;101149.81;5094844;28;20468;-73
2023/09/10 10:26:51;;;;;;;12.27;11.07;;;;;;;25.13;61.67;101151.97;5093819;28;20425;-73
2023/09/10 10:29:25;;;;;;;13.07;11.77;;;;;;;25.32;60.21;101149.81;5094250;28;20464;-73
2023/09/10 10:32:02;;;;;;;13.50;12.10;;;;;;;25.33;61.34;101152.31;5094113;28;20421;-74
2023/09/10 10:34:42;;;;;;;12.82;11.68;;;;;;;25.46;59.54;101146.53;5095346;28;20185;-73
2023/09/10 10:37:23;;;;;;;13.98;12.65;;;;;;;25.63;59.14;101150.13;5093998;28;20504;-73
2023/09/10 10:39:59;;;;;;;12.32;11.18;;;;;;;25.71;59.94;101144.25;5094879;28;20641;-73
2023/09/10 10:42:38;;;;;;;14.93;13.50;;;;;;;25.79;57.77;101148.44;5093582;28;20420;-73
2023/09/10 10:45:15;;;;;;;13.38;12.20;;;;;;;25.96;58.64;101140.22;5094806;28;20855;-73
2023/09/10 10:47:48;;;;;;;12.98;11.82;;;;;;;26.03;58.80;101143.59;5094034;28;20423;-73